sensor_id;sensor_type;location;lat;lon;timestamp;P1;durP1;ratioP1;P2;durP2;ratioP2
6424;SDS011;12193;42.642;23.384;2023-02-05T00:01:02;4.57;;;2.67;;
6424;SDS011;12193;42.642;23.384;2023-02-05T00:03:32;4.37;;;2.40;;
6424;SDS011;12193;42.642;23.384;2023-02-05T00:06:03;9.27;;;2.90;;
6424;SDS011;12193;42.642;23.384;2023-02-05T00:08:35;5.20;;;2.67;;
6424;SDS011;12193;42.642;23.384;2023-02-05T00:11:05;2.77;;;2.13;;
6424;SDS011;12193;42.642;23.384;2023-02-05T00:13:35;5.90;;;2.93;;
6424;SDS011;12193;42.642;23.384;2023-02-05T00:16:07;4.67;;;3.03;;
6424;SDS011;12193;42.642;23.384;2023-02-05T00:18:37;6.17;;;2.70;;
6424;SDS011;12193;42.642;23.384;2023-02-05T00:21:07;7.40;;;2.80;;
6424;SDS011;12193;42.642;23.384;2023-02-05T00:23:39;3.47;;;2.60;;
6424;SDS011;12193;42.642;23.384;2023-02-05T00:26:09;5.60;;;2.90;;
6424;SDS011;12193;42.642;23.384;2023-02-05T00:28:39;5.10;;;2.90;;
6424;SDS011;12193;42.642;23.384;2023-02-05T00:31:09;5.60;;;3.43;;
6424;SDS011;12193;42.642;23.384;2023-02-05T00:33:40;5.23;;;3.17;;
6424;SDS011;12193;42.642;23.384;2023-02-05T00:36:10;7.77;;;3.30;;
6424;SDS011;12193;42.642;23.384;2023-02-05T00:38:42;4.40;;;2.97;;
6424;SDS011;12193;42.642;23.384;2023-02-05T00:41:13;6.17;;;2.90;;
6424;SDS011;12193;42.642;23.384;2023-02-05T00:43:43;4.33;;;2.63;;
6424;SDS011;12193;42.642;23.384;2023-02-05T00:46:13;5.93;;;2.90;;
6424;SDS011;12193;42.642;23.384;2023-02-05T00:48:43;3.97;;;2.70;;
6424;SDS011;12193;42.642;23.384;2023-02-05T00:51:12;6.50;;;3.37;;
6424;SDS011;12193;42.642;23.384;2023-02-05T00:53:44;4.10;;;2.93;;
6424;SDS011;12193;42.642;23.384;2023-02-05T00:56:13;5.70;;;3.30;;
6424;SDS011;12193;42.642;23.384;2023-02-05T00:58:42;4.43;;;2.60;;
6424;SDS011;12193;42.642;23.384;2023-02-05T01:01:14;4.53;;;3.07;;
6424;SDS011;12193;42.642;23.384;2023-02-05T01:03:44;5.73;;;3.03;;
6424;SDS011;12193;42.642;23.384;2023-02-05T04:08:37;9.93;;;3.73;;
6424;SDS011;12193;42.642;23.384;2023-02-05T04:11:08;5.60;;;3.27;;
6424;SDS011;12193;42.642;23.384;2023-02-05T04:13:38;6.40;;;3.30;;
6424;SDS011;12193;42.642;23.384;2023-02-05T04:16:08;5.53;;;3.33;;
6424;SDS011;12193;42.642;23.384;2023-02-05T04:18:37;6.17;;;3.33;;
6424;SDS011;12193;42.642;23.384;2023-02-05T04:21:06;6.83;;;3.70;;
6424;SDS011;12193;42.642;23.384;2023-02-05T04:23:38;5.47;;;3.60;;
6424;SDS011;12193;42.642;23.384;2023-02-05T04:26:08;4.83;;;2.87;;
6424;SDS011;12193;42.642;23.384;2023-02-05T04:28:38;4.13;;;2.80;;
6424;SDS011;12193;42.642;23.384;2023-02-05T04:31:07;5.10;;;2.90;;
6424;SDS011;12193;42.642;23.384;2023-02-05T04:33:38;4.17;;;2.50;;
6424;SDS011;12193;42.642;23.384;2023-02-05T04:36:08;5.03;;;2.97;;
6424;SDS011;12193;42.642;23.384;2023-02-05T04:38:40;6.30;;;3.23;;
6424;SDS011;12193;42.642;23.384;2023-02-05T04:41:10;5.70;;;3.10;;
6424;SDS011;12193;42.642;23.384;2023-02-05T04:43:39;4.50;;;2.73;;
6424;SDS011;12193;42.642;23.384;2023-02-05T04:46:09;6.40;;;3.30;;
6424;SDS011;12193;42.642;23.384;2023-02-05T04:48:39;7.33;;;2.80;;
6424;SDS011;12193;42.642;23.384;2023-02-05T04:51:09;6.00;;;3.00;;
6424;SDS011;12193;42.642;23.384;2023-02-05T04:53:43;4.33;;;3.20;;
6424;SDS011;12193;42.642;23.384;2023-02-05T04:56:13;6.20;;;2.83;;
6424;SDS011;12193;42.642;23.384;2023-02-05T04:58:44;5.13;;;2.33;;
6424;SDS011;12193;42.642;23.384;2023-02-05T05:01:15;5.40;;;2.93;;
6424;SDS011;12193;42.642;23.384;2023-02-05T05:03:46;4.43;;;2.90;;
6424;SDS011;12193;42.642;23.384;2023-02-05T05:06:16;5.23;;;2.90;;
6424;SDS011;12193;42.642;23.384;2023-02-05T05:08:48;6.63;;;2.90;;
6424;SDS011;12193;42.642;23.384;2023-02-05T05:11:18;8.43;;;2.27;;
6424;SDS011;12193;42.642;23.384;2023-02-05T05:13:47;5.93;;;3.20;;
6424;SDS011;12193;42.642;23.384;2023-02-05T05:16:17;4.10;;;2.63;;
6424;SDS011;12193;42.642;23.384;2023-02-05T05:18:46;5.63;;;3.33;;
6424;SDS011;12193;42.642;23.384;2023-02-05T05:21:19;5.07;;;3.00;;
6424;SDS011;12193;42.642;23.384;2023-02-05T05:23:51;4.03;;;2.30;;
6424;SDS011;12193;42.642;23.384;2023-02-05T05:26:20;7.93;;;3.20;;
6424;SDS011;12193;42.642;23.384;2023-02-05T05:28:51;5.13;;;2.77;;
6424;SDS011;12193;42.642;23.384;2023-02-05T05:31:21;3.17;;;2.10;;
6424;SDS011;12193;42.642;23.384;2023-02-05T05:33:51;4.03;;;2.67;;
6424;SDS011;12193;42.642;23.384;2023-02-05T05:36:20;5.33;;;2.70;;
6424;SDS011;12193;42.642;23.384;2023-02-05T05:38:52;4.50;;;2.60;;
6424;SDS011;12193;42.642;23.384;2023-02-05T05:41:41;5.13;;;2.57;;
6424;SDS011;12193;42.642;23.384;2023-02-05T05:44:23;9.80;;;2.67;;
6424;SDS011;12193;42.642;23.384;2023-02-05T05:46:53;5.00;;;2.70;;
6424;SDS011;12193;42.642;23.384;2023-02-05T05:49:22;5.63;;;3.47;;
6424;SDS011;12193;42.642;23.384;2023-02-05T05:51:51;3.63;;;2.37;;
6424;SDS011;12193;42.642;23.384;2023-02-05T05:54:23;4.20;;;2.30;;
6424;SDS011;12193;42.642;23.384;2023-02-05T05:56:52;4.00;;;2.70;;
6424;SDS011;12193;42.642;23.384;2023-02-05T05:59:22;4.37;;;2.50;;
6424;SDS011;12193;42.642;23.384;2023-02-05T06:01:51;4.13;;;2.80;;
6424;SDS011;12193;42.642;23.384;2023-02-05T06:04:20;5.40;;;3.30;;
6424;SDS011;12193;42.642;23.384;2023-02-05T06:06:50;5.90;;;2.43;;
6424;SDS011;12193;42.642;23.384;2023-02-05T06:09:19;6.97;;;3.53;;
6424;SDS011;12193;42.642;23.384;2023-02-05T06:11:52;7.63;;;3.50;;
6424;SDS011;12193;42.642;23.384;2023-02-05T06:14:21;13.07;;;4.10;;
6424;SDS011;12193;42.642;23.384;2023-02-05T06:16:51;6.50;;;3.60;;
6424;SDS011;12193;42.642;23.384;2023-02-05T06:19:20;5.30;;;3.20;;
6424;SDS011;12193;42.642;23.384;2023-02-05T06:21:50;6.50;;;3.10;;
6424;SDS011;12193;42.642;23.384;2023-02-05T06:24:19;5.87;;;3.33;;
6424;SDS011;12193;42.642;23.384;2023-02-05T06:26:49;6.17;;;4.20;;
6424;SDS011;12193;42.642;23.384;2023-02-05T06:29:21;6.17;;;3.17;;
6424;SDS011;12193;42.642;23.384;2023-02-05T06:31:50;5.90;;;3.30;;
6424;SDS011;12193;42.642;23.384;2023-02-05T06:34:19;5.73;;;3.73;;
6424;SDS011;12193;42.642;23.384;2023-02-05T06:36:49;5.13;;;3.17;;
6424;SDS011;12193;42.642;23.384;2023-02-05T06:39:18;9.57;;;3.50;;
6424;SDS011;12193;42.642;23.384;2023-02-05T06:41:47;6.97;;;3.63;;
6424;SDS011;12193;42.642;23.384;2023-02-05T06:44:19;8.07;;;4.10;;
6424;SDS011;12193;42.642;23.384;2023-02-05T06:46:49;7.20;;;3.97;;
6424;SDS011;12193;42.642;23.384;2023-02-05T06:49:18;8.97;;;4.37;;
6424;SDS011;12193;42.642;23.384;2023-02-05T06:51:47;7.13;;;3.70;;
6424;SDS011;12193;42.642;23.384;2023-02-05T06:54:17;6.53;;;3.90;;
6424;SDS011;12193;42.642;23.384;2023-02-05T06:56:47;8.73;;;4.27;;
6424;SDS011;12193;42.642;23.384;2023-02-05T06:59:18;7.13;;;4.17;;
6424;SDS011;12193;42.642;23.384;2023-02-05T07:01:48;8.23;;;4.37;;
6424;SDS011;12193;42.642;23.384;2023-02-05T07:04:17;7.80;;;4.17;;
6424;SDS011;12193;42.642;23.384;2023-02-05T07:06:47;8.80;;;4.63;;
6424;SDS011;12193;42.642;23.384;2023-02-05T07:09:16;10.73;;;4.60;;
6424;SDS011;12193;42.642;23.384;2023-02-05T07:11:45;7.40;;;4.23;;
6424;SDS011;12193;42.642;23.384;2023-02-05T07:14:14;10.97;;;5.23;;
6424;SDS011;12193;42.642;23.384;2023-02-05T07:16:46;7.67;;;4.20;;
6424;SDS011;12193;42.642;23.384;2023-02-05T07:19:16;13.30;;;5.87;;
6424;SDS011;12193;42.642;23.384;2023-02-05T07:21:45;9.43;;;4.80;;
6424;SDS011;12193;42.642;23.384;2023-02-05T07:24:14;10.47;;;4.73;;
6424;SDS011;12193;42.642;23.384;2023-02-05T07:26:43;10.10;;;5.13;;
6424;SDS011;12193;42.642;23.384;2023-02-05T07:29:13;10.13;;;5.23;;
6424;SDS011;12193;42.642;23.384;2023-02-05T07:31:42;8.07;;;4.93;;
6424;SDS011;12193;42.642;23.384;2023-02-05T07:34:14;10.23;;;5.10;;
6424;SDS011;12193;42.642;23.384;2023-02-05T07:36:43;9.37;;;4.60;;
6424;SDS011;12193;42.642;23.384;2023-02-05T07:39:13;7.07;;;4.37;;
6424;SDS011;12193;42.642;23.384;2023-02-05T07:41:42;11.40;;;4.80;;
6424;SDS011;12193;42.642;23.384;2023-02-05T07:44:11;8.73;;;5.20;;
6424;SDS011;12193;42.642;23.384;2023-02-05T07:46:41;7.40;;;4.53;;
6424;SDS011;12193;42.642;23.384;2023-02-05T07:49:10;7.37;;;4.00;;
6424;SDS011;12193;42.642;23.384;2023-02-05T07:51:42;9.30;;;4.23;;
6424;SDS011;12193;42.642;23.384;2023-02-05T07:54:12;7.17;;;4.30;;
6424;SDS011;12193;42.642;23.384;2023-02-05T07:56:42;9.73;;;4.50;;
6424;SDS011;12193;42.642;23.384;2023-02-05T07:59:11;10.00;;;4.40;;
6424;SDS011;12193;42.642;23.384;2023-02-05T08:01:40;8.07;;;4.70;;
6424;SDS011;12193;42.642;23.384;2023-02-05T08:04:10;10.50;;;4.40;;
6424;SDS011;12193;42.642;23.384;2023-02-05T08:06:42;9.97;;;4.53;;
6424;SDS011;12193;42.642;23.384;2023-02-05T08:09:11;8.10;;;4.63;;
6424;SDS011;12193;42.642;23.384;2023-02-05T08:11:41;6.47;;;4.10;;
6424;SDS011;12193;42.642;23.384;2023-02-05T08:14:11;5.80;;;3.73;;
6424;SDS011;12193;42.642;23.384;2023-02-05T08:16:40;7.03;;;4.13;;
6424;SDS011;12193;42.642;23.384;2023-02-05T08:19:09;7.53;;;4.43;;
6424;SDS011;12193;42.642;23.384;2023-02-05T08:21:45;9.17;;;4.60;;
6424;SDS011;12193;42.642;23.384;2023-02-05T08:24:14;7.90;;;4.63;;
6424;SDS011;12193;42.642;23.384;2023-02-05T08:26:43;9.83;;;5.03;;
6424;SDS011;12193;42.642;23.384;2023-02-05T08:29:13;9.70;;;4.90;;
6424;SDS011;12193;42.642;23.384;2023-02-05T08:31:42;21.43;;;4.33;;
6424;SDS011;12193;42.642;23.384;2023-02-05T08:34:11;9.03;;;4.33;;
6424;SDS011;12193;42.642;23.384;2023-02-05T08:36:41;7.70;;;4.10;;
6424;SDS011;12193;42.642;23.384;2023-02-05T08:39:12;7.07;;;3.90;;
6424;SDS011;12193;42.642;23.384;2023-02-05T08:41:42;7.60;;;4.00;;
6424;SDS011;12193;42.642;23.384;2023-02-05T08:44:12;7.37;;;4.07;;
6424;SDS011;12193;42.642;23.384;2023-02-05T08:46:41;6.30;;;3.70;;
6424;SDS011;12193;42.642;23.384;2023-02-05T08:49:10;5.23;;;3.13;;
6424;SDS011;12193;42.642;23.384;2023-02-05T08:51:42;4.77;;;2.77;;
6424;SDS011;12193;42.642;23.384;2023-02-05T08:54:13;3.43;;;2.10;;
6424;SDS011;12193;42.642;23.384;2023-02-05T08:56:44;4.17;;;2.47;;
6424;SDS011;12193;42.642;23.384;2023-02-05T08:59:13;3.13;;;2.13;;
6424;SDS011;12193;42.642;23.384;2023-02-05T09:01:43;4.47;;;2.37;;
6424;SDS011;12193;42.642;23.384;2023-02-05T09:04:13;3.90;;;2.10;;
6424;SDS011;12193;42.642;23.384;2023-02-05T09:06:44;3.90;;;2.33;;
6424;SDS011;12193;42.642;23.384;2023-02-05T09:09:16;4.07;;;2.43;;
6424;SDS011;12193;42.642;23.384;2023-02-05T09:11:46;4.10;;;2.40;;
6424;SDS011;12193;42.642;23.384;2023-02-05T09:14:15;2.77;;;1.90;;
6424;SDS011;12193;42.642;23.384;2023-02-05T09:16:44;3.13;;;2.20;;
6424;SDS011;12193;42.642;23.384;2023-02-05T09:19:14;3.80;;;2.40;;
6424;SDS011;12193;42.642;23.384;2023-02-05T09:21:43;6.57;;;2.40;;
6424;SDS011;12193;42.642;23.384;2023-02-05T09:24:12;5.10;;;2.57;;
6424;SDS011;12193;42.642;23.384;2023-02-05T09:26:44;6.40;;;2.60;;
6424;SDS011;12193;42.642;23.384;2023-02-05T09:29:14;3.47;;;2.30;;
6424;SDS011;12193;42.642;23.384;2023-02-05T09:31:43;4.90;;;2.57;;
6424;SDS011;12193;42.642;23.384;2023-02-05T09:34:12;4.37;;;2.00;;
6424;SDS011;12193;42.642;23.384;2023-02-05T09:36:42;2.83;;;1.90;;
6424;SDS011;12193;42.642;23.384;2023-02-05T09:39:11;2.47;;;1.87;;
6424;SDS011;12193;42.642;23.384;2023-02-05T09:41:45;4.17;;;1.83;;
6424;SDS011;12193;42.642;23.384;2023-02-05T09:44:24;3.77;;;1.97;;
6424;SDS011;12193;42.642;23.384;2023-02-05T09:47:08;3.13;;;1.93;;
6424;SDS011;12193;42.642;23.384;2023-02-05T09:49:46;3.93;;;2.03;;
6424;SDS011;12193;42.642;23.384;2023-02-05T09:52:21;4.10;;;1.90;;
6424;SDS011;12193;42.642;23.384;2023-02-05T09:54:54;3.97;;;1.60;;
6424;SDS011;12193;42.642;23.384;2023-02-05T09:57:35;6.53;;;2.30;;
6424;SDS011;12193;42.642;23.384;2023-02-05T10:00:11;4.27;;;2.23;;
6424;SDS011;12193;42.642;23.384;2023-02-05T10:02:49;2.63;;;1.90;;
6424;SDS011;12193;42.642;23.384;2023-02-05T10:05:24;3.37;;;1.87;;
6424;SDS011;12193;42.642;23.384;2023-02-05T10:08:01;2.53;;;1.60;;
6424;SDS011;12193;42.642;23.384;2023-02-05T10:10:37;2.30;;;1.60;;
6424;SDS011;12193;42.642;23.384;2023-02-05T10:13:27;2.97;;;2.00;;
6424;SDS011;12193;42.642;23.384;2023-02-05T10:16:17;3.00;;;1.83;;
6424;SDS011;12193;42.642;23.384;2023-02-05T10:18:58;4.03;;;1.93;;
6424;SDS011;12193;42.642;23.384;2023-02-05T10:21:54;4.07;;;2.00;;
6424;SDS011;12193;42.642;23.384;2023-02-05T10:24:39;3.93;;;2.20;;
6424;SDS011;12193;42.642;23.384;2023-02-05T10:27:24;3.57;;;1.93;;
6424;SDS011;12193;42.642;23.384;2023-02-05T10:30:05;6.07;;;2.30;;
6424;SDS011;12193;42.642;23.384;2023-02-05T10:32:46;5.50;;;2.10;;
6424;SDS011;12193;42.642;23.384;2023-02-05T10:35:25;6.93;;;2.87;;
6424;SDS011;12193;42.642;23.384;2023-02-05T10:38:00;3.60;;;2.20;;
6424;SDS011;12193;42.642;23.384;2023-02-05T10:40:33;4.53;;;2.57;;
6424;SDS011;12193;42.642;23.384;2023-02-05T10:43:13;3.40;;;2.23;;
6424;SDS011;12193;42.642;23.384;2023-02-05T10:45:53;4.10;;;1.97;;
6424;SDS011;12193;42.642;23.384;2023-02-05T10:48:32;3.27;;;2.10;;
6424;SDS011;12193;42.642;23.384;2023-02-05T10:51:09;3.33;;;1.93;;
6424;SDS011;12193;42.642;23.384;2023-02-05T10:53:41;3.57;;;2.17;;
6424;SDS011;12193;42.642;23.384;2023-02-05T10:56:13;3.97;;;2.30;;
6424;SDS011;12193;42.642;23.384;2023-02-05T10:58:46;3.47;;;2.07;;
6424;SDS011;12193;42.642;23.384;2023-02-05T11:01:23;5.90;;;2.10;;
6424;SDS011;12193;42.642;23.384;2023-02-05T11:03:58;3.43;;;2.33;;
6424;SDS011;12193;42.642;23.384;2023-02-05T11:06:30;4.37;;;2.00;;
6424;SDS011;12193;42.642;23.384;2023-02-05T11:09:00;3.33;;;1.90;;
6424;SDS011;12193;42.642;23.384;2023-02-05T11:11:31;4.37;;;2.20;;
6424;SDS011;12193;42.642;23.384;2023-02-05T11:14:01;2.97;;;2.00;;
6424;SDS011;12193;42.642;23.384;2023-02-05T11:16:37;5.17;;;2.10;;
6424;SDS011;12193;42.642;23.384;2023-02-05T11:19:15;3.93;;;2.00;;
6424;SDS011;12193;42.642;23.384;2023-02-05T11:21:50;3.33;;;1.93;;
6424;SDS011;12193;42.642;23.384;2023-02-05T11:24:22;4.97;;;2.77;;
6424;SDS011;12193;42.642;23.384;2023-02-05T11:27:10;5.30;;;2.80;;
6424;SDS011;12193;42.642;23.384;2023-02-05T11:29:52;4.13;;;2.30;;
6424;SDS011;12193;42.642;23.384;2023-02-05T11:32:30;3.63;;;1.90;;
6424;SDS011;12193;42.642;23.384;2023-02-05T11:35:09;3.70;;;2.03;;
6424;SDS011;12193;42.642;23.384;2023-02-05T11:37:46;4.33;;;2.27;;
6424;SDS011;12193;42.642;23.384;2023-02-05T11:40:18;4.13;;;2.30;;
6424;SDS011;12193;42.642;23.384;2023-02-05T11:42:55;4.37;;;2.30;;
6424;SDS011;12193;42.642;23.384;2023-02-05T11:45:28;3.30;;;1.63;;
6424;SDS011;12193;42.642;23.384;2023-02-05T11:48:03;4.47;;;1.83;;
6424;SDS011;12193;42.642;23.384;2023-02-05T11:50:34;2.60;;;1.60;;
6424;SDS011;12193;42.642;23.384;2023-02-05T11:53:07;2.97;;;1.60;;
6424;SDS011;12193;42.642;23.384;2023-02-05T11:55:42;2.73;;;1.70;;
6424;SDS011;12193;42.642;23.384;2023-02-05T11:58:18;3.37;;;1.80;;
6424;SDS011;12193;42.642;23.384;2023-02-05T12:00:51;2.17;;;1.40;;
6424;SDS011;12193;42.642;23.384;2023-02-05T12:03:25;3.03;;;1.53;;
6424;SDS011;12193;42.642;23.384;2023-02-05T12:06:06;3.47;;;1.70;;
6424;SDS011;12193;42.642;23.384;2023-02-05T12:08:44;1.77;;;1.47;;
6424;SDS011;12193;42.642;23.384;2023-02-05T12:11:22;2.70;;;1.70;;
6424;SDS011;12193;42.642;23.384;2023-02-05T12:14:26;1.83;;;1.50;;
6424;SDS011;12193;42.642;23.384;2023-02-05T12:20:14;2.13;;;1.53;;
6424;SDS011;12193;42.642;23.384;2023-02-05T12:23:08;3.50;;;2.00;;
6424;SDS011;12193;42.642;23.384;2023-02-05T12:25:53;3.10;;;1.80;;
6424;SDS011;12193;42.642;23.384;2023-02-05T12:28:36;3.43;;;1.97;;
6424;SDS011;12193;42.642;23.384;2023-02-05T12:31:17;5.97;;;2.10;;
6424;SDS011;12193;42.642;23.384;2023-02-05T12:33:58;3.30;;;1.77;;
6424;SDS011;12193;42.642;23.384;2023-02-05T12:36:43;3.53;;;1.90;;
6424;SDS011;12193;42.642;23.384;2023-02-05T12:39:25;3.47;;;2.10;;
6424;SDS011;12193;42.642;23.384;2023-02-05T12:42:03;5.23;;;1.90;;
6424;SDS011;12193;42.642;23.384;2023-02-05T12:44:46;3.30;;;2.00;;
6424;SDS011;12193;42.642;23.384;2023-02-05T12:47:30;2.20;;;1.20;;
6424;SDS011;12193;42.642;23.384;2023-02-05T12:50:18;2.80;;;1.73;;
6424;SDS011;12193;42.642;23.384;2023-02-05T12:53:09;2.80;;;2.00;;
6424;SDS011;12193;42.642;23.384;2023-02-05T12:55:58;1.97;;;1.60;;
6424;SDS011;12193;42.642;23.384;2023-02-05T12:58:40;2.10;;;1.73;;
6424;SDS011;12193;42.642;23.384;2023-02-05T13:01:13;5.23;;;2.77;;
6424;SDS011;12193;42.642;23.384;2023-02-05T13:03:48;5.43;;;2.60;;
6424;SDS011;12193;42.642;23.384;2023-02-05T13:06:21;7.13;;;2.97;;
6424;SDS011;12193;42.642;23.384;2023-02-05T13:08:59;5.63;;;3.10;;
6424;SDS011;12193;42.642;23.384;2023-02-05T13:11:33;9.50;;;3.30;;
6424;SDS011;12193;42.642;23.384;2023-02-05T13:14:07;4.20;;;2.63;;
6424;SDS011;12193;42.642;23.384;2023-02-05T13:16:46;5.63;;;2.77;;
6424;SDS011;12193;42.642;23.384;2023-02-05T13:19:21;4.20;;;2.77;;
6424;SDS011;12193;42.642;23.384;2023-02-05T13:21:55;5.00;;;3.00;;
6424;SDS011;12193;42.642;23.384;2023-02-05T13:24:43;5.27;;;3.17;;
6424;SDS011;12193;42.642;23.384;2023-02-05T13:27:28;8.77;;;3.73;;
6424;SDS011;12193;42.642;23.384;2023-02-05T13:30:13;7.77;;;3.40;;
6424;SDS011;12193;42.642;23.384;2023-02-05T13:32:47;5.67;;;3.10;;
6424;SDS011;12193;42.642;23.384;2023-02-05T13:35:21;6.27;;;3.57;;
6424;SDS011;12193;42.642;23.384;2023-02-05T13:37:58;6.77;;;3.23;;
6424;SDS011;12193;42.642;23.384;2023-02-05T13:43:40;5.67;;;3.37;;
6424;SDS011;12193;42.642;23.384;2023-02-05T13:46:39;5.67;;;3.63;;
6424;SDS011;12193;42.642;23.384;2023-02-05T13:49:31;6.90;;;3.63;;
6424;SDS011;12193;42.642;23.384;2023-02-05T13:55:26;3.77;;;2.33;;
6424;SDS011;12193;42.642;23.384;2023-02-05T13:58:19;2.57;;;2.00;;
6424;SDS011;12193;42.642;23.384;2023-02-05T14:00:53;2.93;;;2.10;;
6424;SDS011;12193;42.642;23.384;2023-02-05T14:03:33;3.93;;;2.30;;
6424;SDS011;12193;42.642;23.384;2023-02-05T14:06:14;2.93;;;2.00;;
6424;SDS011;12193;42.642;23.384;2023-02-05T14:08:49;5.33;;;2.60;;
6424;SDS011;12193;42.642;23.384;2023-02-05T14:11:25;3.87;;;2.40;;
6424;SDS011;12193;42.642;23.384;2023-02-05T14:16:51;10.80;;;5.07;;
6424;SDS011;12193;42.642;23.384;2023-02-05T14:19:23;10.33;;;5.50;;
6424;SDS011;12193;42.642;23.384;2023-02-05T14:21:58;13.40;;;5.57;;
6424;SDS011;12193;42.642;23.384;2023-02-05T14:24:42;9.87;;;5.27;;
6424;SDS011;12193;42.642;23.384;2023-02-05T14:27:19;8.53;;;5.60;;
6424;SDS011;12193;42.642;23.384;2023-02-05T14:39:19;12.03;;;5.57;;
6424;SDS011;12193;42.642;23.384;2023-02-05T14:41:54;8.20;;;4.93;;
6424;SDS011;12193;42.642;23.384;2023-02-05T14:44:26;11.00;;;5.50;;
6424;SDS011;12193;42.642;23.384;2023-02-05T14:46:59;10.23;;;5.57;;
6424;SDS011;12193;42.642;23.384;2023-02-05T14:49:38;10.47;;;5.13;;
6424;SDS011;12193;42.642;23.384;2023-02-05T14:52:22;9.73;;;5.80;;
6424;SDS011;12193;42.642;23.384;2023-02-05T14:54:55;10.37;;;5.80;;
6424;SDS011;12193;42.642;23.384;2023-02-05T14:57:38;9.77;;;5.80;;
6424;SDS011;12193;42.642;23.384;2023-02-05T15:00:23;11.33;;;5.80;;
6424;SDS011;12193;42.642;23.384;2023-02-05T15:03:01;11.23;;;5.97;;
6424;SDS011;12193;42.642;23.384;2023-02-05T15:05:51;9.33;;;4.93;;
6424;SDS011;12193;42.642;23.384;2023-02-05T15:11:14;7.07;;;4.80;;
6424;SDS011;12193;42.642;23.384;2023-02-05T15:20:14;8.47;;;4.73;;
6424;SDS011;12193;42.642;23.384;2023-02-05T15:22:52;6.83;;;4.50;;
6424;SDS011;12193;42.642;23.384;2023-02-05T15:25:30;9.90;;;4.83;;
6424;SDS011;12193;42.642;23.384;2023-02-05T15:28:06;7.27;;;4.17;;
6424;SDS011;12193;42.642;23.384;2023-02-05T15:30:46;10.43;;;5.07;;
6424;SDS011;12193;42.642;23.384;2023-02-05T15:33:26;7.77;;;4.70;;
6424;SDS011;12193;42.642;23.384;2023-02-05T15:36:02;9.73;;;4.83;;
6424;SDS011;12193;42.642;23.384;2023-02-05T15:38:43;7.00;;;3.93;;
6424;SDS011;12193;42.642;23.384;2023-02-05T15:41:17;11.67;;;5.33;;
6424;SDS011;12193;42.642;23.384;2023-02-05T15:43:58;10.20;;;5.23;;
6424;SDS011;12193;42.642;23.384;2023-02-05T15:46:30;8.33;;;4.90;;
6424;SDS011;12193;42.642;23.384;2023-02-05T15:49:01;10.73;;;5.83;;
6424;SDS011;12193;42.642;23.384;2023-02-05T15:51:34;16.47;;;6.80;;
6424;SDS011;12193;42.642;23.384;2023-02-05T15:54:07;10.40;;;5.63;;
6424;SDS011;12193;42.642;23.384;2023-02-05T15:56:36;13.90;;;6.10;;
6424;SDS011;12193;42.642;23.384;2023-02-05T15:59:10;10.50;;;5.83;;
6424;SDS011;12193;42.642;23.384;2023-02-05T16:01:45;9.50;;;4.87;;
6424;SDS011;12193;42.642;23.384;2023-02-05T16:04:18;10.60;;;6.27;;
6424;SDS011;12193;42.642;23.384;2023-02-05T16:06:54;10.90;;;5.87;;
6424;SDS011;12193;42.642;23.384;2023-02-05T16:09:27;11.00;;;5.43;;
6424;SDS011;12193;42.642;23.384;2023-02-05T16:12:08;10.63;;;5.53;;
6424;SDS011;12193;42.642;23.384;2023-02-05T16:14:38;11.57;;;5.90;;
6424;SDS011;12193;42.642;23.384;2023-02-05T16:17:09;10.80;;;5.27;;
6424;SDS011;12193;42.642;23.384;2023-02-05T16:19:44;8.97;;;5.33;;
6424;SDS011;12193;42.642;23.384;2023-02-05T16:22:20;10.17;;;5.73;;
6424;SDS011;12193;42.642;23.384;2023-02-05T16:25:01;10.33;;;5.40;;
6424;SDS011;12193;42.642;23.384;2023-02-05T16:27:34;12.73;;;5.83;;
6424;SDS011;12193;42.642;23.384;2023-02-05T16:30:11;10.67;;;6.10;;
6424;SDS011;12193;42.642;23.384;2023-02-05T16:32:45;10.37;;;5.43;;
6424;SDS011;12193;42.642;23.384;2023-02-05T16:35:18;9.07;;;5.20;;
6424;SDS011;12193;42.642;23.384;2023-02-05T16:37:52;11.77;;;6.00;;
6424;SDS011;12193;42.642;23.384;2023-02-05T16:40:31;11.93;;;6.70;;
6424;SDS011;12193;42.642;23.384;2023-02-05T16:43:15;11.27;;;5.93;;
6424;SDS011;12193;42.642;23.384;2023-02-05T16:46:05;10.07;;;5.00;;
6424;SDS011;12193;42.642;23.384;2023-02-05T16:48:52;11.67;;;5.83;;
6424;SDS011;12193;42.642;23.384;2023-02-05T16:51:26;12.80;;;6.67;;
6424;SDS011;12193;42.642;23.384;2023-02-05T16:54:01;12.30;;;6.23;;
6424;SDS011;12193;42.642;23.384;2023-02-05T16:56:34;11.50;;;6.33;;
6424;SDS011;12193;42.642;23.384;2023-02-05T16:59:13;10.47;;;5.80;;
6424;SDS011;12193;42.642;23.384;2023-02-05T17:01:47;9.07;;;5.87;;
6424;SDS011;12193;42.642;23.384;2023-02-05T17:04:18;11.97;;;6.20;;
6424;SDS011;12193;42.642;23.384;2023-02-05T17:06:51;12.17;;;6.80;;
6424;SDS011;12193;42.642;23.384;2023-02-05T17:09:28;13.93;;;7.37;;
6424;SDS011;12193;42.642;23.384;2023-02-05T17:15:29;10.33;;;5.77;;
6424;SDS011;12193;42.642;23.384;2023-02-05T17:18:17;10.27;;;6.00;;
6424;SDS011;12193;42.642;23.384;2023-02-05T17:23:48;12.40;;;5.90;;
6424;SDS011;12193;42.642;23.384;2023-02-05T17:26:18;11.47;;;5.90;;
6424;SDS011;12193;42.642;23.384;2023-02-05T17:28:51;9.80;;;5.53;;
6424;SDS011;12193;42.642;23.384;2023-02-05T17:31:25;11.57;;;5.77;;
6424;SDS011;12193;42.642;23.384;2023-02-05T17:33:55;10.80;;;5.40;;
6424;SDS011;12193;42.642;23.384;2023-02-05T17:36:26;10.40;;;5.40;;
6424;SDS011;12193;42.642;23.384;2023-02-05T17:38:55;11.07;;;5.90;;
6424;SDS011;12193;42.642;23.384;2023-02-05T17:41:25;8.67;;;5.10;;
6424;SDS011;12193;42.642;23.384;2023-02-05T17:44:09;12.30;;;6.00;;
6424;SDS011;12193;42.642;23.384;2023-02-05T17:46:43;13.13;;;5.77;;
6424;SDS011;12193;42.642;23.384;2023-02-05T17:49:12;8.17;;;5.27;;
6424;SDS011;12193;42.642;23.384;2023-02-05T17:51:41;13.43;;;6.13;;
6424;SDS011;12193;42.642;23.384;2023-02-05T17:54:11;10.00;;;5.40;;
6424;SDS011;12193;42.642;23.384;2023-02-05T17:56:42;8.57;;;5.17;;
6424;SDS011;12193;42.642;23.384;2023-02-05T17:59:13;9.73;;;5.60;;
6424;SDS011;12193;42.642;23.384;2023-02-05T18:01:48;9.17;;;5.40;;
6424;SDS011;12193;42.642;23.384;2023-02-05T18:04:18;10.50;;;5.60;;
6424;SDS011;12193;42.642;23.384;2023-02-05T18:06:48;8.73;;;5.20;;
6424;SDS011;12193;42.642;23.384;2023-02-05T18:09:18;8.33;;;4.37;;
6424;SDS011;12193;42.642;23.384;2023-02-05T18:11:47;9.07;;;5.07;;
6424;SDS011;12193;42.642;23.384;2023-02-05T18:14:17;11.03;;;5.23;;
6424;SDS011;12193;42.642;23.384;2023-02-05T18:16:49;7.47;;;5.00;;
6424;SDS011;12193;42.642;23.384;2023-02-05T18:19:18;10.80;;;5.13;;
6424;SDS011;12193;42.642;23.384;2023-02-05T18:21:47;11.83;;;5.23;;
6424;SDS011;12193;42.642;23.384;2023-02-05T18:24:16;11.77;;;5.37;;
6424;SDS011;12193;42.642;23.384;2023-02-05T18:26:46;7.97;;;5.03;;
6424;SDS011;12193;42.642;23.384;2023-02-05T18:29:17;11.53;;;5.57;;
6424;SDS011;12193;42.642;23.384;2023-02-05T18:31:49;11.37;;;5.37;;
6424;SDS011;12193;42.642;23.384;2023-02-05T18:34:18;10.13;;;4.20;;
6424;SDS011;12193;42.642;23.384;2023-02-05T18:36:48;9.50;;;4.27;;
6424;SDS011;12193;42.642;23.384;2023-02-05T18:39:17;8.93;;;5.37;;
6424;SDS011;12193;42.642;23.384;2023-02-05T18:41:46;8.07;;;4.87;;
6424;SDS011;12193;42.642;23.384;2023-02-05T18:44:16;9.60;;;5.47;;
6424;SDS011;12193;42.642;23.384;2023-02-05T18:46:45;9.30;;;4.70;;
6424;SDS011;12193;42.642;23.384;2023-02-05T18:49:17;6.63;;;4.40;;
6424;SDS011;12193;42.642;23.384;2023-02-05T18:51:46;9.53;;;5.33;;
6424;SDS011;12193;42.642;23.384;2023-02-05T18:54:15;10.23;;;4.47;;
6424;SDS011;12193;42.642;23.384;2023-02-05T18:56:44;10.40;;;5.20;;
6424;SDS011;12193;42.642;23.384;2023-02-05T18:59:15;8.87;;;5.13;;
6424;SDS011;12193;42.642;23.384;2023-02-05T19:01:46;10.90;;;4.73;;
6424;SDS011;12193;42.642;23.384;2023-02-05T19:04:17;8.80;;;4.40;;